sensor_id;sensor_type;location;lat;lon;timestamp;temperature;humidity
13035;DHT22;6584;48.022;11.810;2023-03-05T00:01:40;0.70;99.90
13035;DHT22;6584;48.022;11.810;2023-03-05T00:04:09;0.70;99.90
13035;DHT22;6584;48.022;11.810;2023-03-05T00:06:35;0.70;99.90
13035;DHT22;6584;48.022;11.810;2023-03-05T00:09:01;0.70;99.90
13035;DHT22;6584;48.022;11.810;2023-03-05T00:11:27;0.70;99.90
13035;DHT22;6584;48.022;11.810;2023-03-05T00:13:55;0.60;99.90
13035;DHT22;6584;48.022;11.810;2023-03-05T00:16:22;0.70;99.90
13035;DHT22;6584;48.022;11.810;2023-03-05T00:18:51;0.70;99.90
13035;DHT22;6584;48.022;11.810;2023-03-05T00:21:32;0.60;99.90
13035;DHT22;6584;48.022;11.810;2023-03-05T00:23:59;0.70;99.90
13035;DHT22;6584;48.022;11.810;2023-03-05T00:26:26;0.70;99.90
13035;DHT22;6584;48.022;11.810;2023-03-05T00:28:54;0.70;99.90
13035;DHT22;6584;48.022;11.810;2023-03-05T00:31:22;0.70;99.90
13035;DHT22;6584;48.022;11.810;2023-03-05T00:33:51;0.70;99.90
13035;DHT22;6584;48.022;11.810;2023-03-05T00:36:17;0.60;99.90
13035;DHT22;6584;48.022;11.810;2023-03-05T00:38:43;0.70;99.90
13035;DHT22;6584;48.022;11.810;2023-03-05T00:41:08;0.70;99.90
13035;DHT22;6584;48.022;11.810;2023-03-05T00:43:34;0.70;99.90
13035;DHT22;6584;48.022;11.810;2023-03-05T00:45:59;0.70;99.90
13035;DHT22;6584;48.022;11.810;2023-03-05T00:48:25;0.70;99.90
13035;DHT22;6584;48.022;11.810;2023-03-05T00:50:51;0.70;99.90
13035;DHT22;6584;48.022;11.810;2023-03-05T00:53:16;0.70;99.90
13035;DHT22;6584;48.022;11.810;2023-03-05T00:55:42;0.70;99.90
13035;DHT22;6584;48.022;11.810;2023-03-05T00:58:08;0.80;99.90
13035;DHT22;6584;48.022;11.810;2023-03-05T01:00:33;0.80;99.90
13035;DHT22;6584;48.022;11.810;2023-03-05T01:02:59;0.80;99.90
13035;DHT22;6584;48.022;11.810;2023-03-05T01:05:24;0.80;99.90
13035;DHT22;6584;48.022;11.810;2023-03-05T01:07:54;0.80;99.90
13035;DHT22;6584;48.022;11.810;2023-03-05T01:10:21;0.80;99.90
13035;DHT22;6584;48.022;11.810;2023-03-05T01:12:48;0.80;99.90
13035;DHT22;6584;48.022;11.810;2023-03-05T01:15:14;0.80;99.90
13035;DHT22;6584;48.022;11.810;2023-03-05T01:17:39;0.80;99.90
13035;DHT22;6584;48.022;11.810;2023-03-05T01:20:05;0.80;99.90
13035;DHT22;6584;48.022;11.810;2023-03-05T01:22:31;0.70;99.90
13035;DHT22;6584;48.022;11.810;2023-03-05T01:24:57;0.70;99.90
13035;DHT22;6584;48.022;11.810;2023-03-05T01:27:22;0.70;99.90
13035;DHT22;6584;48.022;11.810;2023-03-05T01:29:48;0.70;99.90
13035;DHT22;6584;48.022;11.810;2023-03-05T01:32:13;0.80;99.90
13035;DHT22;6584;48.022;11.810;2023-03-05T01:34:39;0.70;99.90
13035;DHT22;6584;48.022;11.810;2023-03-05T01:37:06;0.70;99.90
13035;DHT22;6584;48.022;11.810;2023-03-05T01:39:32;0.80;99.90
13035;DHT22;6584;48.022;11.810;2023-03-05T01:41:57;0.80;99.90
13035;DHT22;6584;48.022;11.810;2023-03-05T01:44:26;0.80;99.90
13035;DHT22;6584;48.022;11.810;2023-03-05T01:46:52;0.70;99.90
13035;DHT22;6584;48.022;11.810;2023-03-05T01:49:19;0.70;99.90
13035;DHT22;6584;48.022;11.810;2023-03-05T01:51:55;0.70;99.90
13035;DHT22;6584;48.022;11.810;2023-03-05T01:54:27;0.70;99.90
13035;DHT22;6584;48.022;11.810;2023-03-05T01:56:56;0.80;99.90
13035;DHT22;6584;48.022;11.810;2023-03-05T01:59:24;0.90;99.90
13035;DHT22;6584;48.022;11.810;2023-03-05T02:01:53;0.80;99.90
13035;DHT22;6584;48.022;11.810;2023-03-05T02:04:20;0.80;99.90
13035;DHT22;6584;48.022;11.810;2023-03-05T02:06:47;0.80;99.90
13035;DHT22;6584;48.022;11.810;2023-03-05T02:09:14;0.80;99.90
13035;DHT22;6584;48.022;11.810;2023-03-05T02:11:40;0.80;99.90
13035;DHT22;6584;48.022;11.810;2023-03-05T02:14:06;0.80;99.90
13035;DHT22;6584;48.022;11.810;2023-03-05T02:16:32;0.70;99.90
13035;DHT22;6584;48.022;11.810;2023-03-05T02:19:03;0.70;99.90
13035;DHT22;6584;48.022;11.810;2023-03-05T02:21:44;0.80;99.90
13035;DHT22;6584;48.022;11.810;2023-03-05T02:24:34;0.80;99.90
13035;DHT22;6584;48.022;11.810;2023-03-05T02:27:00;0.80;99.90
13035;DHT22;6584;48.022;11.810;2023-03-05T02:29:26;0.80;99.90
13035;DHT22;6584;48.022;11.810;2023-03-05T02:31:54;0.80;99.90
13035;DHT22;6584;48.022;11.810;2023-03-05T02:34:20;0.80;99.90
13035;DHT22;6584;48.022;11.810;2023-03-05T02:36:45;0.80;99.90
13035;DHT22;6584;48.022;11.810;2023-03-05T02:39:11;0.80;99.90
13035;DHT22;6584;48.022;11.810;2023-03-05T02:41:37;0.90;99.90
13035;DHT22;6584;48.022;11.810;2023-03-05T02:44:02;0.80;99.90
13035;DHT22;6584;48.022;11.810;2023-03-05T02:46:28;0.90;99.90
13035;DHT22;6584;48.022;11.810;2023-03-05T02:48:54;0.90;99.90
13035;DHT22;6584;48.022;11.810;2023-03-05T02:51:19;0.80;99.90
13035;DHT22;6584;48.022;11.810;2023-03-05T02:53:45;0.80;99.90
13035;DHT22;6584;48.022;11.810;2023-03-05T02:56:10;0.80;99.90
13035;DHT22;6584;48.022;11.810;2023-03-05T02:58:36;0.80;99.90
13035;DHT22;6584;48.022;11.810;2023-03-05T03:01:01;0.80;99.90
13035;DHT22;6584;48.022;11.810;2023-03-05T03:03:27;0.90;99.90
13035;DHT22;6584;48.022;11.810;2023-03-05T03:05:52;0.90;99.90
13035;DHT22;6584;48.022;11.810;2023-03-05T03:08:18;0.90;99.90
13035;DHT22;6584;48.022;11.810;2023-03-05T03:10:43;0.90;99.90
13035;DHT22;6584;48.022;11.810;2023-03-05T03:13:09;0.90;99.90
13035;DHT22;6584;48.022;11.810;2023-03-05T03:15:34;0.90;99.90
13035;DHT22;6584;48.022;11.810;2023-03-05T03:18:02;0.90;99.90
13035;DHT22;6584;48.022;11.810;2023-03-05T03:20:28;0.90;99.90
13035;DHT22;6584;48.022;11.810;2023-03-05T03:22:53;0.80;99.90
13035;DHT22;6584;48.022;11.810;2023-03-05T03:25:20;0.90;99.90
13035;DHT22;6584;48.022;11.810;2023-03-05T03:27:47;0.90;99.90
13035;DHT22;6584;48.022;11.810;2023-03-05T03:30:13;0.90;99.90
13035;DHT22;6584;48.022;11.810;2023-03-05T03:32:39;0.90;99.90
13035;DHT22;6584;48.022;11.810;2023-03-05T03:35:05;0.90;99.90
13035;DHT22;6584;48.022;11.810;2023-03-05T03:37:31;0.90;99.90
13035;DHT22;6584;48.022;11.810;2023-03-05T03:39:57;0.90;99.90
13035;DHT22;6584;48.022;11.810;2023-03-05T03:42:23;0.90;99.90
13035;DHT22;6584;48.022;11.810;2023-03-05T03:44:49;0.90;99.90
13035;DHT22;6584;48.022;11.810;2023-03-05T03:47:16;0.90;99.90
13035;DHT22;6584;48.022;11.810;2023-03-05T03:49:41;0.90;99.90
13035;DHT22;6584;48.022;11.810;2023-03-05T03:52:07;0.90;99.90
13035;DHT22;6584;48.022;11.810;2023-03-05T03:54:33;0.90;99.90
13035;DHT22;6584;48.022;11.810;2023-03-05T03:56:59;0.90;99.90
13035;DHT22;6584;48.022;11.810;2023-03-05T03:59:24;0.90;99.90
13035;DHT22;6584;48.022;11.810;2023-03-05T04:01:50;0.90;99.90
13035;DHT22;6584;48.022;11.810;2023-03-05T04:04:15;0.90;99.90
13035;DHT22;6584;48.022;11.810;2023-03-05T04:06:41;0.90;99.90
13035;DHT22;6584;48.022;11.810;2023-03-05T04:09:07;0.90;99.90
13035;DHT22;6584;48.022;11.810;2023-03-05T04:11:34;0.90;99.90
13035;DHT22;6584;48.022;11.810;2023-03-05T04:14:00;0.90;99.90
13035;DHT22;6584;48.022;11.810;2023-03-05T04:16:26;0.90;99.90
13035;DHT22;6584;48.022;11.810;2023-03-05T04:18:52;0.90;99.90
13035;DHT22;6584;48.022;11.810;2023-03-05T04:21:17;0.90;99.90
13035;DHT22;6584;48.022;11.810;2023-03-05T04:23:43;0.90;99.90
13035;DHT22;6584;48.022;11.810;2023-03-05T04:26:08;1.00;99.90
13035;DHT22;6584;48.022;11.810;2023-03-05T04:28:34;1.00;99.90
13035;DHT22;6584;48.022;11.810;2023-03-05T04:31:00;0.90;99.90
13035;DHT22;6584;48.022;11.810;2023-03-05T04:33:25;0.90;99.90
13035;DHT22;6584;48.022;11.810;2023-03-05T04:35:51;1.00;99.90
13035;DHT22;6584;48.022;11.810;2023-03-05T04:38:17;1.00;99.90
13035;DHT22;6584;48.022;11.810;2023-03-05T04:40:44;1.00;99.90
13035;DHT22;6584;48.022;11.810;2023-03-05T04:43:10;1.00;99.90
13035;DHT22;6584;48.022;11.810;2023-03-05T04:45:38;1.00;99.90
13035;DHT22;6584;48.022;11.810;2023-03-05T04:48:04;1.00;99.90
13035;DHT22;6584;48.022;11.810;2023-03-05T04:50:30;1.00;99.90
13035;DHT22;6584;48.022;11.810;2023-03-05T04:52:56;1.00;99.90
13035;DHT22;6584;48.022;11.810;2023-03-05T04:55:22;1.00;99.90
13035;DHT22;6584;48.022;11.810;2023-03-05T04:57:47;1.00;99.90
13035;DHT22;6584;48.022;11.810;2023-03-05T05:00:14;1.00;99.90
13035;DHT22;6584;48.022;11.810;2023-03-05T05:02:42;1.00;99.90
13035;DHT22;6584;48.022;11.810;2023-03-05T05:05:13;1.00;99.90
13035;DHT22;6584;48.022;11.810;2023-03-05T05:07:40;1.00;99.90
13035;DHT22;6584;48.022;11.810;2023-03-05T05:10:07;1.00;99.90
13035;DHT22;6584;48.022;11.810;2023-03-05T05:12:33;1.00;99.90
13035;DHT22;6584;48.022;11.810;2023-03-05T05:14:59;1.00;99.90
13035;DHT22;6584;48.022;11.810;2023-03-05T05:17:25;1.00;99.90
13035;DHT22;6584;48.022;11.810;2023-03-05T05:19:52;1.00;99.90
13035;DHT22;6584;48.022;11.810;2023-03-05T05:22:17;1.10;99.90
13035;DHT22;6584;48.022;11.810;2023-03-05T05:24:43;1.10;99.90
13035;DHT22;6584;48.022;11.810;2023-03-05T05:27:08;1.10;99.90
13035;DHT22;6584;48.022;11.810;2023-03-05T05:29:34;1.10;99.90
13035;DHT22;6584;48.022;11.810;2023-03-05T05:32:00;1.10;99.90
13035;DHT22;6584;48.022;11.810;2023-03-05T05:34:25;1.10;99.90
13035;DHT22;6584;48.022;11.810;2023-03-05T05:36:52;1.10;99.90
13035;DHT22;6584;48.022;11.810;2023-03-05T05:39:17;1.10;99.90
13035;DHT22;6584;48.022;11.810;2023-03-05T05:41:43;1.10;99.90
13035;DHT22;6584;48.022;11.810;2023-03-05T05:44:08;1.10;99.90
13035;DHT22;6584;48.022;11.810;2023-03-05T05:46:34;1.10;99.90
13035;DHT22;6584;48.022;11.810;2023-03-05T05:49:00;1.10;99.90
13035;DHT22;6584;48.022;11.810;2023-03-05T05:51:25;1.10;99.90
13035;DHT22;6584;48.022;11.810;2023-03-05T05:53:51;1.10;99.90
13035;DHT22;6584;48.022;11.810;2023-03-05T05:56:18;1.10;99.90
13035;DHT22;6584;48.022;11.810;2023-03-05T05:58:45;1.10;99.90
13035;DHT22;6584;48.022;11.810;2023-03-05T06:01:21;1.10;99.90
13035;DHT22;6584;48.022;11.810;2023-03-05T06:03:47;1.20;99.90
13035;DHT22;6584;48.022;11.810;2023-03-05T06:06:15;1.10;99.90
13035;DHT22;6584;48.022;11.810;2023-03-05T06:08:41;1.20;99.90
13035;DHT22;6584;48.022;11.810;2023-03-05T06:11:06;1.20;99.90
13035;DHT22;6584;48.022;11.810;2023-03-05T06:13:32;1.20;99.90
13035;DHT22;6584;48.022;11.810;2023-03-05T06:16:00;1.20;99.90
13035;DHT22;6584;48.022;11.810;2023-03-05T06:18:26;1.20;99.90
13035;DHT22;6584;48.022;11.810;2023-03-05T06:21:01;1.20;99.90
13035;DHT22;6584;48.022;11.810;2023-03-05T06:23:27;1.30;99.90
13035;DHT22;6584;48.022;11.810;2023-03-05T06:25:53;1.30;99.90
13035;DHT22;6584;48.022;11.810;2023-03-05T06:28:19;1.30;99.90
13035;DHT22;6584;48.022;11.810;2023-03-05T06:30:45;1.30;99.90
13035;DHT22;6584;48.022;11.810;2023-03-05T06:33:11;1.30;99.90
13035;DHT22;6584;48.022;11.810;2023-03-05T06:35:38;1.40;99.90
13035;DHT22;6584;48.022;11.810;2023-03-05T06:38:05;1.40;99.90
13035;DHT22;6584;48.022;11.810;2023-03-05T06:40:30;1.40;99.90
13035;DHT22;6584;48.022;11.810;2023-03-05T06:42:56;1.40;99.90
13035;DHT22;6584;48.022;11.810;2023-03-05T06:45:21;1.40;99.90
13035;DHT22;6584;48.022;11.810;2023-03-05T06:47:47;1.40;99.90
13035;DHT22;6584;48.022;11.810;2023-03-05T06:50:13;1.50;99.90
13035;DHT22;6584;48.022;11.810;2023-03-05T06:52:38;1.50;99.90
13035;DHT22;6584;48.022;11.810;2023-03-05T06:55:06;1.50;99.90
13035;DHT22;6584;48.022;11.810;2023-03-05T06:57:32;1.50;99.90
13035;DHT22;6584;48.022;11.810;2023-03-05T06:59:57;1.50;99.90
13035;DHT22;6584;48.022;11.810;2023-03-05T07:02:23;1.50;99.90
13035;DHT22;6584;48.022;11.810;2023-03-05T07:04:48;1.50;99.90
13035;DHT22;6584;48.022;11.810;2023-03-05T07:07:14;1.60;99.90
13035;DHT22;6584;48.022;11.810;2023-03-05T07:09:39;1.70;99.90
13035;DHT22;6584;48.022;11.810;2023-03-05T07:12:11;1.70;99.90
13035;DHT22;6584;48.022;11.810;2023-03-05T07:14:39;1.70;99.90
13035;DHT22;6584;48.022;11.810;2023-03-05T07:17:05;1.80;99.90
13035;DHT22;6584;48.022;11.810;2023-03-05T07:19:31;1.70;99.90
13035;DHT22;6584;48.022;11.810;2023-03-05T07:21:57;1.70;99.90
13035;DHT22;6584;48.022;11.810;2023-03-05T07:24:22;1.80;99.90
13035;DHT22;6584;48.022;11.810;2023-03-05T07:26:55;1.80;99.90
13035;DHT22;6584;48.022;11.810;2023-03-05T07:29:22;1.80;99.90
13035;DHT22;6584;48.022;11.810;2023-03-05T07:31:48;1.80;99.90
13035;DHT22;6584;48.022;11.810;2023-03-05T07:34:14;1.90;99.90
13035;DHT22;6584;48.022;11.810;2023-03-05T07:36:39;1.90;99.90
13035;DHT22;6584;48.022;11.810;2023-03-05T07:39:06;1.90;99.90
13035;DHT22;6584;48.022;11.810;2023-03-05T07:41:32;1.90;99.90
13035;DHT22;6584;48.022;11.810;2023-03-05T07:43:58;1.90;99.90
13035;DHT22;6584;48.022;11.810;2023-03-05T07:46:30;2.00;99.90
13035;DHT22;6584;48.022;11.810;2023-03-05T07:48:56;2.00;99.90
13035;DHT22;6584;48.022;11.810;2023-03-05T07:51:23;2.10;99.90
13035;DHT22;6584;48.022;11.810;2023-03-05T07:53:50;2.20;99.90
13035;DHT22;6584;48.022;11.810;2023-03-05T07:56:24;2.20;99.90
13035;DHT22;6584;48.022;11.810;2023-03-05T07:58:51;2.20;99.90
13035;DHT22;6584;48.022;11.810;2023-03-05T08:01:17;2.20;99.90
13035;DHT22;6584;48.022;11.810;2023-03-05T08:03:43;2.20;99.90
13035;DHT22;6584;48.022;11.810;2023-03-05T08:06:10;2.30;99.90
13035;DHT22;6584;48.022;11.810;2023-03-05T08:08:36;2.30;99.90
13035;DHT22;6584;48.022;11.810;2023-03-05T08:11:07;2.20;99.90
13035;DHT22;6584;48.022;11.810;2023-03-05T08:13:33;2.30;99.90
13035;DHT22;6584;48.022;11.810;2023-03-05T08:16:02;2.20;99.90
13035;DHT22;6584;48.022;11.810;2023-03-05T08:18:28;2.20;99.90
13035;DHT22;6584;48.022;11.810;2023-03-05T08:20:53;2.20;99.90
13035;DHT22;6584;48.022;11.810;2023-03-05T08:23:19;2.20;99.90
13035;DHT22;6584;48.022;11.810;2023-03-05T08:25:44;2.20;99.90
13035;DHT22;6584;48.022;11.810;2023-03-05T08:28:10;2.20;99.90
13035;DHT22;6584;48.022;11.810;2023-03-05T08:30:35;2.30;99.90
13035;DHT22;6584;48.022;11.810;2023-03-05T08:33:01;2.30;99.90
13035;DHT22;6584;48.022;11.810;2023-03-05T08:35:26;2.40;99.90
13035;DHT22;6584;48.022;11.810;2023-03-05T08:37:52;2.40;99.90
13035;DHT22;6584;48.022;11.810;2023-03-05T08:40:18;2.40;99.90
13035;DHT22;6584;48.022;11.810;2023-03-05T08:42:44;2.40;99.90
13035;DHT22;6584;48.022;11.810;2023-03-05T08:45:10;2.40;99.90
13035;DHT22;6584;48.022;11.810;2023-03-05T08:47:36;2.40;99.90
13035;DHT22;6584;48.022;11.810;2023-03-05T08:50:02;2.50;99.90
13035;DHT22;6584;48.022;11.810;2023-03-05T08:52:28;2.50;99.90
13035;DHT22;6584;48.022;11.810;2023-03-05T08:54:54;2.50;99.90
13035;DHT22;6584;48.022;11.810;2023-03-05T08:57:20;2.60;99.90
13035;DHT22;6584;48.022;11.810;2023-03-05T08:59:45;2.60;99.90
13035;DHT22;6584;48.022;11.810;2023-03-05T09:02:11;2.60;99.90
13035;DHT22;6584;48.022;11.810;2023-03-05T09:04:37;2.50;99.90
13035;DHT22;6584;48.022;11.810;2023-03-05T09:07:03;2.70;99.90
13035;DHT22;6584;48.022;11.810;2023-03-05T09:09:28;2.70;99.90
13035;DHT22;6584;48.022;11.810;2023-03-05T09:11:56;2.80;99.90
13035;DHT22;6584;48.022;11.810;2023-03-05T09:14:22;2.80;99.90
13035;DHT22;6584;48.022;11.810;2023-03-05T09:16:47;2.80;99.90
13035;DHT22;6584;48.022;11.810;2023-03-05T09:19:13;2.90;99.90
13035;DHT22;6584;48.022;11.810;2023-03-05T09:21:40;2.90;99.90
13035;DHT22;6584;48.022;11.810;2023-03-05T09:24:06;3.00;99.90
13035;DHT22;6584;48.022;11.810;2023-03-05T09:26:32;3.00;99.90
13035;DHT22;6584;48.022;11.810;2023-03-05T09:28:57;3.10;99.90
13035;DHT22;6584;48.022;11.810;2023-03-05T09:31:23;3.20;99.90
13035;DHT22;6584;48.022;11.810;2023-03-05T09:33:49;3.20;99.90
13035;DHT22;6584;48.022;11.810;2023-03-05T09:36:26;3.30;99.90
13035;DHT22;6584;48.022;11.810;2023-03-05T09:38:52;3.30;99.90
13035;DHT22;6584;48.022;11.810;2023-03-05T09:41:48;3.40;99.90
13035;DHT22;6584;48.022;11.810;2023-03-05T09:44:36;3.40;99.90
13035;DHT22;6584;48.022;11.810;2023-03-05T09:47:32;3.40;99.90
13035;DHT22;6584;48.022;11.810;2023-03-05T09:50:09;3.50;99.90
13035;DHT22;6584;48.022;11.810;2023-03-05T09:53:01;3.60;99.90
13035;DHT22;6584;48.022;11.810;2023-03-05T09:55:38;3.60;99.90
13035;DHT22;6584;48.022;11.810;2023-03-05T09:58:10;3.70;99.90
13035;DHT22;6584;48.022;11.810;2023-03-05T10:00:46;3.70;99.90
13035;DHT22;6584;48.022;11.810;2023-03-05T10:09:16;3.80;99.90
13035;DHT22;6584;48.022;11.810;2023-03-05T10:11:52;4.00;99.90
13035;DHT22;6584;48.022;11.810;2023-03-05T10:22:20;4.00;99.90
13035;DHT22;6584;48.022;11.810;2023-03-05T10:34:00;4.00;99.90
13035;DHT22;6584;48.022;11.810;2023-03-05T10:39:31;4.00;99.90
13035;DHT22;6584;48.022;11.810;2023-03-05T10:44:57;4.10;99.90
13035;DHT22;6584;48.022;11.810;2023-03-05T10:50:30;4.10;99.90
13035;DHT22;6584;48.022;11.810;2023-03-05T10:53:22;4.10;99.90
13035;DHT22;6584;48.022;11.810;2023-03-05T10:55:50;4.10;99.90
13035;DHT22;6584;48.022;11.810;2023-03-05T10:58:21;4.20;99.90
13035;DHT22;6584;48.022;11.810;2023-03-05T11:03:49;4.20;99.90
13035;DHT22;6584;48.022;11.810;2023-03-05T11:06:17;4.20;99.90
13035;DHT22;6584;48.022;11.810;2023-03-05T11:08:51;4.30;99.90
13035;DHT22;6584;48.022;11.810;2023-03-05T11:11:19;4.30;99.90
13035;DHT22;6584;48.022;11.810;2023-03-05T11:13:57;4.40;99.90
13035;DHT22;6584;48.022;11.810;2023-03-05T11:16:27;4.40;99.90
13035;DHT22;6584;48.022;11.810;2023-03-05T11:21:39;4.40;99.90
13035;DHT22;6584;48.022;11.810;2023-03-05T11:26:34;4.30;99.90
13035;DHT22;6584;48.022;11.810;2023-03-05T11:29:02;4.40;99.90
13035;DHT22;6584;48.022;11.810;2023-03-05T11:31:31;4.40;99.90
13035;DHT22;6584;48.022;11.810;2023-03-05T11:34:02;4.40;99.90
13035;DHT22;6584;48.022;11.810;2023-03-05T11:36:36;4.50;99.90
13035;DHT22;6584;48.022;11.810;2023-03-05T11:41:38;4.50;99.90
13035;DHT22;6584;48.022;11.810;2023-03-05T11:44:11;4.60;99.90
13035;DHT22;6584;48.022;11.810;2023-03-05T11:46:42;4.70;99.90
13035;DHT22;6584;48.022;11.810;2023-03-05T11:49:12;4.70;99.90
13035;DHT22;6584;48.022;11.810;2023-03-05T11:51:56;4.70;99.90
13035;DHT22;6584;48.022;11.810;2023-03-05T11:57:14;4.80;99.90
13035;DHT22;6584;48.022;11.810;2023-03-05T11:59:42;4.80;99.90
13035;DHT22;6584;48.022;11.810;2023-03-05T12:02:18;4.90;99.90
13035;DHT22;6584;48.022;11.810;2023-03-05T12:04:44;5.00;99.90
13035;DHT22;6584;48.022;11.810;2023-03-05T12:07:14;5.10;99.90
13035;DHT22;6584;48.022;11.810;2023-03-05T12:09:46;5.00;99.90
13035;DHT22;6584;48.022;11.810;2023-03-05T12:12:46;5.00;99.90
13035;DHT22;6584;48.022;11.810;2023-03-05T12:18:17;5.00;99.90
13035;DHT22;6584;48.022;11.810;2023-03-05T12:23:55;4.90;99.90
13035;DHT22;6584;48.022;11.810;2023-03-05T12:29:51;4.80;99.90
13035;DHT22;6584;48.022;11.810;2023-03-05T12:35:00;4.70;99.90
13035;DHT22;6584;48.022;11.810;2023-03-05T12:42:49;4.80;99.90
13035;DHT22;6584;48.022;11.810;2023-03-05T12:55:23;4.60;99.90
13035;DHT22;6584;48.022;11.810;2023-03-05T12:58:24;4.60;99.90
13035;DHT22;6584;48.022;11.810;2023-03-05T13:06:29;4.70;99.90
13035;DHT22;6584;48.022;11.810;2023-03-05T13:08:57;4.60;99.90
13035;DHT22;6584;48.022;11.810;2023-03-05T13:11:24;4.50;99.90
13035;DHT22;6584;48.022;11.810;2023-03-05T13:13:50;4.50;99.90
13035;DHT22;6584;48.022;11.810;2023-03-05T13:16:24;4.50;99.90
13035;DHT22;6584;48.022;11.810;2023-03-05T13:18:52;4.50;99.90
13035;DHT22;6584;48.022;11.810;2023-03-05T13:21:22;4.50;99.90
13035;DHT22;6584;48.022;11.810;2023-03-05T13:23:53;4.60;99.90
13035;DHT22;6584;48.022;11.810;2023-03-05T13:26:29;4.60;99.90
13035;DHT22;6584;48.022;11.810;2023-03-05T13:29:15;4.60;99.90
13035;DHT22;6584;48.022;11.810;2023-03-05T13:31:44;4.60;99.90
13035;DHT22;6584;48.022;11.810;2023-03-05T13:34:22;4.50;99.90
13035;DHT22;6584;48.022;11.810;2023-03-05T13:37:18;4.60;99.90
13035;DHT22;6584;48.022;11.810;2023-03-05T13:39:59;4.60;99.90
13035;DHT22;6584;48.022;11.810;2023-03-05T13:42:29;4.60;99.90
13035;DHT22;6584;48.022;11.810;2023-03-05T13:45:02;4.60;99.90
13035;DHT22;6584;48.022;11.810;2023-03-05T13:47:30;4.60;99.90
13035;DHT22;6584;48.022;11.810;2023-03-05T13:49:58;4.60;99.90
13035;DHT22;6584;48.022;11.810;2023-03-05T13:52:26;4.60;99.90
13035;DHT22;6584;48.022;11.810;2023-03-05T13:54:52;4.50;99.90
13035;DHT22;6584;48.022;11.810;2023-03-05T14:00:02;4.40;99.90
13035;DHT22;6584;48.022;11.810;2023-03-05T14:02:28;4.40;99.90
13035;DHT22;6584;48.022;11.810;2023-03-05T14:04:54;4.50;99.90
13035;DHT22;6584;48.022;11.810;2023-03-05T14:07:28;4.50;99.90
13035;DHT22;6584;48.022;11.810;2023-03-05T14:09:56;4.60;99.90
13035;DHT22;6584;48.022;11.810;2023-03-05T14:12:34;4.60;99.90
13035;DHT22;6584;48.022;11.810;2023-03-05T14:15:04;4.50;99.90
13035;DHT22;6584;48.022;11.810;2023-03-05T14:17:43;4.60;99.90
13035;DHT22;6584;48.022;11.810;2023-03-05T14:22:40;4.50;99.90
13035;DHT22;6584;48.022;11.810;2023-03-05T14:25:29;4.50;99.90
13035;DHT22;6584;48.022;11.810;2023-03-05T14:27:56;4.40;99.90
13035;DHT22;6584;48.022;11.810;2023-03-05T14:30:23;4.40;99.90
13035;DHT22;6584;48.022;11.810;2023-03-05T14:32:50;4.40;99.90
13035;DHT22;6584;48.022;11.810;2023-03-05T14:35:24;4.40;99.90
13035;DHT22;6584;48.022;11.810;2023-03-05T14:37:52;4.30;99.90
13035;DHT22;6584;48.022;11.810;2023-03-05T14:40:20;4.30;99.90
13035;DHT22;6584;48.022;11.810;2023-03-05T14:42:51;4.30;99.90
13035;DHT22;6584;48.022;11.810;2023-03-05T14:45:20;4.40;99.90
13035;DHT22;6584;48.022;11.810;2023-03-05T14:47:46;4.40;99.90
13035;DHT22;6584;48.022;11.810;2023-03-05T14:50:28;4.40;99.90
13035;DHT22;6584;48.022;11.810;2023-03-05T14:52:56;4.30;99.90
13035;DHT22;6584;48.022;11.810;2023-03-05T14:55:25;4.30;99.90
13035;DHT22;6584;48.022;11.810;2023-03-05T14:57:56;4.20;99.90
13035;DHT22;6584;48.022;11.810;2023-03-05T15:00:26;4.40;99.90
13035;DHT22;6584;48.022;11.810;2023-03-05T15:02:52;4.30;99.90
13035;DHT22;6584;48.022;11.810;2023-03-05T15:05:18;4.30;99.90
13035;DHT22;6584;48.022;11.810;2023-03-05T15:07:45;4.20;99.90
13035;DHT22;6584;48.022;11.810;2023-03-05T15:10:19;4.20;99.90
13035;DHT22;6584;48.022;11.810;2023-03-05T15:12:45;4.10;99.90
13035;DHT22;6584;48.022;11.810;2023-03-05T15:15:16;4.20;99.90
13035;DHT22;6584;48.022;11.810;2023-03-05T15:17:43;4.10;99.90
13035;DHT22;6584;48.022;11.810;2023-03-05T15:20:18;4.10;99.90
13035;DHT22;6584;48.022;11.810;2023-03-05T15:22:44;4.00;99.90
13035;DHT22;6584;48.022;11.810;2023-03-05T15:25:10;4.20;99.90
13035;DHT22;6584;48.022;11.810;2023-03-05T15:27:36;4.10;99.90
13035;DHT22;6584;48.022;11.810;2023-03-05T15:30:03;3.90;99.90
13035;DHT22;6584;48.022;11.810;2023-03-05T15:32:29;3.90;99.90
13035;DHT22;6584;48.022;11.810;2023-03-05T15:34:56;3.80;99.90
13035;DHT22;6584;48.022;11.810;2023-03-05T15:37:23;3.80;99.90
13035;DHT22;6584;48.022;11.810;2023-03-05T15:39:48;3.80;99.90
13035;DHT22;6584;48.022;11.810;2023-03-05T15:42:14;3.80;99.90
13035;DHT22;6584;48.022;11.810;2023-03-05T15:44:40;3.80;99.90
13035;DHT22;6584;48.022;11.810;2023-03-05T15:47:06;3.80;99.90
13035;DHT22;6584;48.022;11.810;2023-03-05T15:49:32;3.70;99.90
13035;DHT22;6584;48.022;11.810;2023-03-05T15:51:58;3.70;99.90
13035;DHT22;6584;48.022;11.810;2023-03-05T15:54:24;3.80;99.90
13035;DHT22;6584;48.022;11.810;2023-03-05T15:56:53;3.70;99.90
13035;DHT22;6584;48.022;11.810;2023-03-05T15:59:19;3.60;99.90
13035;DHT22;6584;48.022;11.810;2023-03-05T16:01:48;3.60;99.90
13035;DHT22;6584;48.022;11.810;2023-03-05T16:04:15;3.60;99.90
13035;DHT22;6584;48.022;11.810;2023-03-05T16:06:43;3.60;99.90
13035;DHT22;6584;48.022;11.810;2023-03-05T16:09:08;3.60;99.90
13035;DHT22;6584;48.022;11.810;2023-03-05T16:11:37;3.60;99.90
13035;DHT22;6584;48.022;11.810;2023-03-05T16:14:06;3.60;99.90
13035;DHT22;6584;48.022;11.810;2023-03-05T16:16:33;3.50;99.90
13035;DHT22;6584;48.022;11.810;2023-03-05T16:19:01;3.40;99.90
13035;DHT22;6584;48.022;11.810;2023-03-05T16:21:27;3.40;99.90
13035;DHT22;6584;48.022;11.810;2023-03-05T16:23:52;3.40;99.90
13035;DHT22;6584;48.022;11.810;2023-03-05T16:26:18;3.40;99.90
13035;DHT22;6584;48.022;11.810;2023-03-05T16:28:44;3.40;99.90
13035;DHT22;6584;48.022;11.810;2023-03-05T16:31:09;3.30;99.90
13035;DHT22;6584;48.022;11.810;2023-03-05T16:33:35;3.20;99.90
13035;DHT22;6584;48.022;11.810;2023-03-05T16:38:36;3.20;99.90
13035;DHT22;6584;48.022;11.810;2023-03-05T16:41:01;3.10;99.90
13035;DHT22;6584;48.022;11.810;2023-03-05T16:43:27;3.10;99.90
13035;DHT22;6584;48.022;11.810;2023-03-05T16:45:52;3.00;99.90
13035;DHT22;6584;48.022;11.810;2023-03-05T16:48:18;2.90;99.90
13035;DHT22;6584;48.022;11.810;2023-03-05T16:50:43;3.00;99.90
13035;DHT22;6584;48.022;11.810;2023-03-05T16:53:09;3.00;99.90
13035;DHT22;6584;48.022;11.810;2023-03-05T16:55:36;3.00;99.90
13035;DHT22;6584;48.022;11.810;2023-03-05T16:58:02;3.00;99.90
13035;DHT22;6584;48.022;11.810;2023-03-05T17:00:27;3.00;99.90
13035;DHT22;6584;48.022;11.810;2023-03-05T17:02:53;3.00;99.90
13035;DHT22;6584;48.022;11.810;2023-03-05T17:05:19;3.00;99.90
13035;DHT22;6584;48.022;11.810;2023-03-05T17:07:44;3.00;99.90
13035;DHT22;6584;48.022;11.810;2023-03-05T17:10:11;3.00;99.90
13035;DHT22;6584;48.022;11.810;2023-03-05T17:12:37;3.00;99.90
13035;DHT22;6584;48.022;11.810;2023-03-05T17:15:03;3.00;99.90
13035;DHT22;6584;48.022;11.810;2023-03-05T17:17:29;3.00;99.90